sensor_id;sensor_type;location;lat;lon;timestamp;P1;durP1;ratioP1;P2;durP2;ratioP2
53925;SDS011;39836;52.754;6.866;2023-01-19T00:01:20;16.23;;;12.85;;
53925;SDS011;39836;52.754;6.866;2023-01-19T00:03:47;19.33;;;14.10;;
53925;SDS011;39836;52.754;6.866;2023-01-19T00:06:13;19.35;;;14.13;;
53925;SDS011;39836;52.754;6.866;2023-01-19T00:08:38;17.25;;;11.80;;
53925;SDS011;39836;52.754;6.866;2023-01-19T00:11:04;16.23;;;13.38;;
53925;SDS011;39836;52.754;6.866;2023-01-19T00:13:30;17.65;;;11.73;;
53925;SDS011;39836;52.754;6.866;2023-01-19T00:15:56;15.20;;;10.98;;
53925;SDS011;39836;52.754;6.866;2023-01-19T00:18:22;14.75;;;10.85;;
53925;SDS011;39836;52.754;6.866;2023-01-19T00:20:48;16.42;;;11.57;;
53925;SDS011;39836;52.754;6.866;2023-01-19T00:23:14;13.18;;;9.82;;
53925;SDS011;39836;52.754;6.866;2023-01-19T00:25:41;14.02;;;10.48;;
53925;SDS011;39836;52.754;6.866;2023-01-19T00:28:11;14.88;;;11.63;;
53925;SDS011;39836;52.754;6.866;2023-01-19T00:30:38;15.15;;;11.23;;
53925;SDS011;39836;52.754;6.866;2023-01-19T00:33:04;12.57;;;10.55;;
53925;SDS011;39836;52.754;6.866;2023-01-19T00:35:30;13.80;;;11.05;;
53925;SDS011;39836;52.754;6.866;2023-01-19T00:37:56;13.90;;;10.18;;
53925;SDS011;39836;52.754;6.866;2023-01-19T00:40:23;12.10;;;9.98;;
53925;SDS011;39836;52.754;6.866;2023-01-19T00:42:48;10.50;;;8.20;;
53925;SDS011;39836;52.754;6.866;2023-01-19T00:45:21;9.45;;;8.00;;
53925;SDS011;39836;52.754;6.866;2023-01-19T00:47:48;8.48;;;7.60;;
53925;SDS011;39836;52.754;6.866;2023-01-19T00:50:21;10.27;;;8.75;;
53925;SDS011;39836;52.754;6.866;2023-01-19T00:52:47;11.43;;;8.48;;
53925;SDS011;39836;52.754;6.866;2023-01-19T00:55:14;9.75;;;8.38;;
53925;SDS011;39836;52.754;6.866;2023-01-19T00:57:41;11.45;;;8.13;;
53925;SDS011;39836;52.754;6.866;2023-01-19T01:00:08;11.52;;;8.63;;
53925;SDS011;39836;52.754;6.866;2023-01-19T01:02:36;11.32;;;9.45;;
53925;SDS011;39836;52.754;6.866;2023-01-19T01:05:03;12.80;;;10.57;;
53925;SDS011;39836;52.754;6.866;2023-01-19T01:07:30;13.52;;;10.70;;
53925;SDS011;39836;52.754;6.866;2023-01-19T01:10:10;12.75;;;11.20;;
53925;SDS011;39836;52.754;6.866;2023-01-19T01:12:38;12.23;;;10.75;;
53925;SDS011;39836;52.754;6.866;2023-01-19T01:15:08;14.85;;;11.98;;
53925;SDS011;39836;52.754;6.866;2023-01-19T01:17:35;14.80;;;11.98;;
53925;SDS011;39836;52.754;6.866;2023-01-19T01:20:02;17.65;;;13.68;;
53925;SDS011;39836;52.754;6.866;2023-01-19T01:22:31;14.50;;;11.77;;
53925;SDS011;39836;52.754;6.866;2023-01-19T01:24:56;17.65;;;14.40;;
53925;SDS011;39836;52.754;6.866;2023-01-19T01:27:22;17.60;;;14.18;;
53925;SDS011;39836;52.754;6.866;2023-01-19T01:29:48;17.23;;;14.65;;
53925;SDS011;39836;52.754;6.866;2023-01-19T01:32:14;19.00;;;15.82;;
53925;SDS011;39836;52.754;6.866;2023-01-19T01:34:40;21.17;;;15.77;;
53925;SDS011;39836;52.754;6.866;2023-01-19T01:37:06;22.70;;;17.00;;
53925;SDS011;39836;52.754;6.866;2023-01-19T01:39:33;19.27;;;16.05;;
53925;SDS011;39836;52.754;6.866;2023-01-19T01:41:59;24.40;;;18.98;;
53925;SDS011;39836;52.754;6.866;2023-01-19T01:44:44;23.48;;;17.10;;
53925;SDS011;39836;52.754;6.866;2023-01-19T01:47:33;20.05;;;16.08;;
53925;SDS011;39836;52.754;6.866;2023-01-19T01:50:21;22.33;;;16.98;;
53925;SDS011;39836;52.754;6.866;2023-01-19T01:52:59;20.60;;;16.15;;
53925;SDS011;39836;52.754;6.866;2023-01-19T01:55:30;23.35;;;16.98;;
53925;SDS011;39836;52.754;6.866;2023-01-19T01:57:57;22.23;;;17.58;;
53925;SDS011;39836;52.754;6.866;2023-01-19T02:00:27;20.85;;;16.77;;
53925;SDS011;39836;52.754;6.866;2023-01-19T02:03:14;19.38;;;14.85;;
53925;SDS011;39836;52.754;6.866;2023-01-19T02:05:40;21.77;;;17.65;;
53925;SDS011;39836;52.754;6.866;2023-01-19T02:09:08;29.50;;;20.25;;
53925;SDS011;39836;52.754;6.866;2023-01-19T02:11:30;24.10;;;16.70;;
53925;SDS011;39836;52.754;6.866;2023-01-19T02:14:16;24.92;;;16.92;;
53925;SDS011;39836;52.754;6.866;2023-01-19T02:16:43;27.25;;;17.38;;
53925;SDS011;39836;52.754;6.866;2023-01-19T02:19:11;21.13;;;16.30;;
53925;SDS011;39836;52.754;6.866;2023-01-19T02:24:47;27.35;;;19.83;;
53925;SDS011;39836;52.754;6.866;2023-01-19T02:27:14;28.75;;;20.42;;
53925;SDS011;39836;52.754;6.866;2023-01-19T02:29:40;20.52;;;16.13;;
53925;SDS011;39836;52.754;6.866;2023-01-19T02:32:06;25.08;;;16.65;;
53925;SDS011;39836;52.754;6.866;2023-01-19T02:34:32;24.45;;;18.75;;
53925;SDS011;39836;52.754;6.866;2023-01-19T02:37:00;23.38;;;17.35;;
53925;SDS011;39836;52.754;6.866;2023-01-19T02:39:35;23.75;;;17.25;;
53925;SDS011;39836;52.754;6.866;2023-01-19T02:42:17;24.27;;;19.02;;
53925;SDS011;39836;52.754;6.866;2023-01-19T02:44:51;22.70;;;17.70;;
53925;SDS011;39836;52.754;6.866;2023-01-19T02:47:19;28.35;;;19.10;;
53925;SDS011;39836;52.754;6.866;2023-01-19T02:49:52;24.42;;;17.60;;
53925;SDS011;39836;52.754;6.866;2023-01-19T02:52:22;29.30;;;19.25;;
53925;SDS011;39836;52.754;6.866;2023-01-19T03:00:36;29.40;;;20.73;;
53925;SDS011;39836;52.754;6.866;2023-01-19T03:03:31;23.40;;;16.10;;
53925;SDS011;39836;52.754;6.866;2023-01-19T03:06:47;29.60;;;19.67;;
53925;SDS011;39836;52.754;6.866;2023-01-19T03:11:45;29.52;;;21.45;;
53925;SDS011;39836;52.754;6.866;2023-01-19T03:14:22;36.60;;;25.70;;
53925;SDS011;39836;52.754;6.866;2023-01-19T03:16:53;29.92;;;22.00;;
53925;SDS011;39836;52.754;6.866;2023-01-19T03:19:36;29.20;;;20.90;;
53925;SDS011;39836;52.754;6.866;2023-01-19T03:22:08;31.50;;;22.65;;
53925;SDS011;39836;52.754;6.866;2023-01-19T03:24:42;26.15;;;18.00;;
53925;SDS011;39836;52.754;6.866;2023-01-19T03:27:11;30.23;;;22.10;;
53925;SDS011;39836;52.754;6.866;2023-01-19T03:29:43;28.17;;;19.23;;
53925;SDS011;39836;52.754;6.866;2023-01-19T03:32:16;27.83;;;20.10;;
53925;SDS011;39836;52.754;6.866;2023-01-19T03:34:45;29.15;;;21.92;;
53925;SDS011;39836;52.754;6.866;2023-01-19T03:37:13;36.90;;;24.55;;
53925;SDS011;39836;52.754;6.866;2023-01-19T03:39:41;32.47;;;22.58;;
53925;SDS011;39836;52.754;6.866;2023-01-19T03:42:08;32.03;;;22.65;;
53925;SDS011;39836;52.754;6.866;2023-01-19T03:44:38;28.65;;;19.83;;
53925;SDS011;39836;52.754;6.866;2023-01-19T03:47:06;29.55;;;21.40;;
53925;SDS011;39836;52.754;6.866;2023-01-19T03:49:35;33.53;;;21.95;;
53925;SDS011;39836;52.754;6.866;2023-01-19T03:52:01;34.15;;;22.77;;
53925;SDS011;39836;52.754;6.866;2023-01-19T03:54:28;38.55;;;24.10;;
53925;SDS011;39836;52.754;6.866;2023-01-19T03:56:54;28.77;;;19.73;;
53925;SDS011;39836;52.754;6.866;2023-01-19T03:59:19;32.63;;;20.50;;
53925;SDS011;39836;52.754;6.866;2023-01-19T04:01:46;29.50;;;21.52;;
53925;SDS011;39836;52.754;6.866;2023-01-19T04:04:12;29.30;;;21.35;;
53925;SDS011;39836;52.754;6.866;2023-01-19T04:06:39;28.55;;;20.20;;
53925;SDS011;39836;52.754;6.866;2023-01-19T04:09:05;30.25;;;19.63;;
53925;SDS011;39836;52.754;6.866;2023-01-19T04:11:32;32.47;;;22.23;;
53925;SDS011;39836;52.754;6.866;2023-01-19T04:13:58;24.67;;;18.88;;
53925;SDS011;39836;52.754;6.866;2023-01-19T04:16:24;27.27;;;18.67;;
53925;SDS011;39836;52.754;6.866;2023-01-19T04:18:49;22.13;;;16.45;;
53925;SDS011;39836;52.754;6.866;2023-01-19T04:21:16;26.05;;;18.85;;
53925;SDS011;39836;52.754;6.866;2023-01-19T04:23:44;26.65;;;17.98;;
53925;SDS011;39836;52.754;6.866;2023-01-19T04:26:10;20.45;;;15.70;;
53925;SDS011;39836;52.754;6.866;2023-01-19T04:28:35;22.23;;;15.32;;
53925;SDS011;39836;52.754;6.866;2023-01-19T04:31:02;19.42;;;14.70;;
53925;SDS011;39836;52.754;6.866;2023-01-19T04:33:29;20.58;;;14.68;;
53925;SDS011;39836;52.754;6.866;2023-01-19T04:35:55;19.67;;;15.38;;
53925;SDS011;39836;52.754;6.866;2023-01-19T04:38:21;19.63;;;15.70;;
53925;SDS011;39836;52.754;6.866;2023-01-19T04:40:48;20.65;;;14.63;;
53925;SDS011;39836;52.754;6.866;2023-01-19T04:43:15;18.58;;;14.13;;
53925;SDS011;39836;52.754;6.866;2023-01-19T04:45:41;18.70;;;13.63;;
53925;SDS011;39836;52.754;6.866;2023-01-19T04:48:09;20.35;;;15.30;;
53925;SDS011;39836;52.754;6.866;2023-01-19T04:50:35;20.25;;;14.63;;
53925;SDS011;39836;52.754;6.866;2023-01-19T04:53:01;20.55;;;14.02;;
53925;SDS011;39836;52.754;6.866;2023-01-19T04:55:27;20.10;;;14.95;;
53925;SDS011;39836;52.754;6.866;2023-01-19T04:57:52;20.58;;;14.77;;
53925;SDS011;39836;52.754;6.866;2023-01-19T05:00:18;20.13;;;15.65;;
53925;SDS011;39836;52.754;6.866;2023-01-19T05:02:45;22.30;;;16.23;;
53925;SDS011;39836;52.754;6.866;2023-01-19T05:05:11;25.20;;;15.02;;
53925;SDS011;39836;52.754;6.866;2023-01-19T05:07:37;25.20;;;17.40;;
53925;SDS011;39836;52.754;6.866;2023-01-19T05:10:03;28.67;;;17.67;;
53925;SDS011;39836;52.754;6.866;2023-01-19T05:12:30;25.38;;;17.13;;
53925;SDS011;39836;52.754;6.866;2023-01-19T05:14:56;24.33;;;16.73;;
53925;SDS011;39836;52.754;6.866;2023-01-19T05:17:21;26.77;;;17.02;;
53925;SDS011;39836;52.754;6.866;2023-01-19T05:19:47;24.20;;;16.63;;
53925;SDS011;39836;52.754;6.866;2023-01-19T05:22:13;29.63;;;16.85;;
53925;SDS011;39836;52.754;6.866;2023-01-19T05:24:39;29.63;;;17.17;;
53925;SDS011;39836;52.754;6.866;2023-01-19T05:27:05;29.15;;;18.95;;
53925;SDS011;39836;52.754;6.866;2023-01-19T05:29:30;32.55;;;17.33;;
53925;SDS011;39836;52.754;6.866;2023-01-19T05:31:56;26.25;;;17.90;;
53925;SDS011;39836;52.754;6.866;2023-01-19T05:34:22;35.70;;;18.00;;
53925;SDS011;39836;52.754;6.866;2023-01-19T05:36:48;30.98;;;17.77;;
53925;SDS011;39836;52.754;6.866;2023-01-19T05:39:14;29.10;;;18.38;;
53925;SDS011;39836;52.754;6.866;2023-01-19T05:41:39;38.88;;;19.58;;
53925;SDS011;39836;52.754;6.866;2023-01-19T05:44:09;31.30;;;17.80;;
53925;SDS011;39836;52.754;6.866;2023-01-19T05:46:36;29.90;;;19.25;;
53925;SDS011;39836;52.754;6.866;2023-01-19T05:49:03;31.08;;;18.52;;
53925;SDS011;39836;52.754;6.866;2023-01-19T05:51:29;32.25;;;17.67;;
53925;SDS011;39836;52.754;6.866;2023-01-19T05:54:05;37.60;;;19.80;;
53925;SDS011;39836;52.754;6.866;2023-01-19T05:56:32;31.17;;;17.55;;
53925;SDS011;39836;52.754;6.866;2023-01-19T05:58:58;29.25;;;17.63;;
53925;SDS011;39836;52.754;6.866;2023-01-19T06:01:24;29.77;;;16.75;;
53925;SDS011;39836;52.754;6.866;2023-01-19T06:03:50;27.52;;;16.30;;
53925;SDS011;39836;52.754;6.866;2023-01-19T06:06:16;31.58;;;15.25;;
53925;SDS011;39836;52.754;6.866;2023-01-19T06:08:42;32.40;;;12.77;;
53925;SDS011;39836;52.754;6.866;2023-01-19T06:11:09;21.33;;;12.05;;
53925;SDS011;39836;52.754;6.866;2023-01-19T06:13:35;18.58;;;8.80;;
53925;SDS011;39836;52.754;6.866;2023-01-19T06:16:01;30.92;;;9.48;;
53925;SDS011;39836;52.754;6.866;2023-01-19T06:18:27;15.55;;;7.50;;
53925;SDS011;39836;52.754;6.866;2023-01-19T06:20:53;15.07;;;6.63;;
53925;SDS011;39836;52.754;6.866;2023-01-19T06:23:29;16.35;;;6.22;;
53925;SDS011;39836;52.754;6.866;2023-01-19T06:25:56;10.38;;;5.10;;
53925;SDS011;39836;52.754;6.866;2023-01-19T06:28:22;19.70;;;7.00;;
53925;SDS011;39836;52.754;6.866;2023-01-19T06:30:48;16.48;;;5.30;;
53925;SDS011;39836;52.754;6.866;2023-01-19T06:33:15;17.23;;;5.90;;
53925;SDS011;39836;52.754;6.866;2023-01-19T06:35:42;9.93;;;5.53;;
53925;SDS011;39836;52.754;6.866;2023-01-19T06:38:08;14.23;;;5.63;;
53925;SDS011;39836;52.754;6.866;2023-01-19T06:40:34;12.93;;;5.78;;
53925;SDS011;39836;52.754;6.866;2023-01-19T06:43:00;10.63;;;5.30;;
53925;SDS011;39836;52.754;6.866;2023-01-19T06:45:26;13.93;;;5.20;;
53925;SDS011;39836;52.754;6.866;2023-01-19T06:47:51;12.82;;;5.50;;
53925;SDS011;39836;52.754;6.866;2023-01-19T06:50:17;15.75;;;5.00;;
53925;SDS011;39836;52.754;6.866;2023-01-19T06:52:43;13.57;;;4.95;;
53925;SDS011;39836;52.754;6.866;2023-01-19T06:55:09;12.00;;;4.10;;
53925;SDS011;39836;52.754;6.866;2023-01-19T06:57:38;15.73;;;4.35;;
53925;SDS011;39836;52.754;6.866;2023-01-19T07:00:04;13.90;;;3.88;;
53925;SDS011;39836;52.754;6.866;2023-01-19T07:02:34;16.17;;;4.30;;
53925;SDS011;39836;52.754;6.866;2023-01-19T07:05:00;14.20;;;4.82;;
53925;SDS011;39836;52.754;6.866;2023-01-19T07:07:26;15.60;;;4.68;;
53925;SDS011;39836;52.754;6.866;2023-01-19T07:09:51;7.78;;;3.22;;
53925;SDS011;39836;52.754;6.866;2023-01-19T07:12:17;8.68;;;3.33;;
53925;SDS011;39836;52.754;6.866;2023-01-19T07:14:43;12.80;;;5.25;;
53925;SDS011;39836;52.754;6.866;2023-01-19T07:17:09;20.80;;;10.05;;
53925;SDS011;39836;52.754;6.866;2023-01-19T07:19:35;9.07;;;3.38;;
53925;SDS011;39836;52.754;6.866;2023-01-19T07:22:00;10.73;;;3.50;;
53925;SDS011;39836;52.754;6.866;2023-01-19T07:24:27;6.63;;;3.22;;
53925;SDS011;39836;52.754;6.866;2023-01-19T07:26:54;11.65;;;3.13;;
53925;SDS011;39836;52.754;6.866;2023-01-19T07:29:20;8.13;;;3.22;;
53925;SDS011;39836;52.754;6.866;2023-01-19T07:31:46;10.25;;;3.10;;
53925;SDS011;39836;52.754;6.866;2023-01-19T07:34:13;9.18;;;4.13;;
53925;SDS011;39836;52.754;6.866;2023-01-19T07:36:39;11.25;;;3.13;;
53925;SDS011;39836;52.754;6.866;2023-01-19T07:39:04;13.23;;;3.28;;
53925;SDS011;39836;52.754;6.866;2023-01-19T07:41:30;14.05;;;3.10;;
53925;SDS011;39836;52.754;6.866;2023-01-19T07:43:56;8.88;;;3.35;;
53925;SDS011;39836;52.754;6.866;2023-01-19T07:46:22;11.65;;;3.50;;
53925;SDS011;39836;52.754;6.866;2023-01-19T07:48:47;15.85;;;3.35;;
53925;SDS011;39836;52.754;6.866;2023-01-19T07:51:14;10.35;;;3.20;;
53925;SDS011;39836;52.754;6.866;2023-01-19T07:53:48;11.88;;;2.95;;
53925;SDS011;39836;52.754;6.866;2023-01-19T07:56:14;12.85;;;2.97;;
53925;SDS011;39836;52.754;6.866;2023-01-19T07:58:39;8.00;;;2.75;;
53925;SDS011;39836;52.754;6.866;2023-01-19T08:01:06;18.13;;;3.42;;
53925;SDS011;39836;52.754;6.866;2023-01-19T08:03:33;13.55;;;3.05;;
53925;SDS011;39836;52.754;6.866;2023-01-19T08:05:59;12.13;;;3.70;;
53925;SDS011;39836;52.754;6.866;2023-01-19T08:08:25;11.00;;;3.38;;
53925;SDS011;39836;52.754;6.866;2023-01-19T08:10:51;10.57;;;3.08;;
53925;SDS011;39836;52.754;6.866;2023-01-19T08:13:17;17.38;;;3.85;;
53925;SDS011;39836;52.754;6.866;2023-01-19T08:15:42;10.63;;;3.25;;
53925;SDS011;39836;52.754;6.866;2023-01-19T08:18:08;9.30;;;3.08;;
53925;SDS011;39836;52.754;6.866;2023-01-19T08:20:35;22.35;;;3.97;;
53925;SDS011;39836;52.754;6.866;2023-01-19T08:23:02;15.20;;;3.20;;
53925;SDS011;39836;52.754;6.866;2023-01-19T08:28:03;12.30;;;3.10;;
53925;SDS011;39836;52.754;6.866;2023-01-19T08:30:30;17.15;;;3.47;;
53925;SDS011;39836;52.754;6.866;2023-01-19T08:32:56;14.15;;;3.10;;
53925;SDS011;39836;52.754;6.866;2023-01-19T08:35:29;17.00;;;3.28;;
53925;SDS011;39836;52.754;6.866;2023-01-19T08:37:55;25.48;;;4.28;;
53925;SDS011;39836;52.754;6.866;2023-01-19T08:40:25;15.32;;;3.17;;
53925;SDS011;39836;52.754;6.866;2023-01-19T08:43:01;24.88;;;4.20;;
53925;SDS011;39836;52.754;6.866;2023-01-19T08:45:31;14.65;;;3.63;;
53925;SDS011;39836;52.754;6.866;2023-01-19T08:48:01;16.23;;;3.38;;
53925;SDS011;39836;52.754;6.866;2023-01-19T08:50:28;21.42;;;3.88;;
53925;SDS011;39836;52.754;6.866;2023-01-19T08:52:58;17.55;;;3.92;;
53925;SDS011;39836;52.754;6.866;2023-01-19T08:55:25;16.55;;;4.18;;
53925;SDS011;39836;52.754;6.866;2023-01-19T08:57:52;22.30;;;4.10;;
53925;SDS011;39836;52.754;6.866;2023-01-19T09:00:21;26.00;;;4.55;;
53925;SDS011;39836;52.754;6.866;2023-01-19T09:02:47;19.13;;;3.35;;
53925;SDS011;39836;52.754;6.866;2023-01-19T09:05:13;26.83;;;4.00;;
53925;SDS011;39836;52.754;6.866;2023-01-19T09:07:38;22.20;;;3.20;;
53925;SDS011;39836;52.754;6.866;2023-01-19T09:10:05;14.38;;;3.63;;
53925;SDS011;39836;52.754;6.866;2023-01-19T09:12:32;24.67;;;3.97;;
53925;SDS011;39836;52.754;6.866;2023-01-19T09:14:58;19.67;;;4.38;;
53925;SDS011;39836;52.754;6.866;2023-01-19T09:17:23;18.05;;;3.58;;
53925;SDS011;39836;52.754;6.866;2023-01-19T09:19:49;18.40;;;3.90;;
53925;SDS011;39836;52.754;6.866;2023-01-19T09:22:14;10.40;;;2.80;;
53925;SDS011;39836;52.754;6.866;2023-01-19T09:24:40;17.60;;;4.22;;
53925;SDS011;39836;52.754;6.866;2023-01-19T09:27:06;20.85;;;3.70;;
53925;SDS011;39836;52.754;6.866;2023-01-19T09:29:31;19.65;;;3.30;;
53925;SDS011;39836;52.754;6.866;2023-01-19T09:31:57;19.80;;;5.00;;
53925;SDS011;39836;52.754;6.866;2023-01-19T09:34:23;13.48;;;3.47;;
53925;SDS011;39836;52.754;6.866;2023-01-19T09:36:51;15.65;;;2.88;;
53925;SDS011;39836;52.754;6.866;2023-01-19T09:39:17;18.58;;;3.47;;
53925;SDS011;39836;52.754;6.866;2023-01-19T09:41:48;17.75;;;3.40;;
53925;SDS011;39836;52.754;6.866;2023-01-19T09:44:27;29.00;;;4.25;;
53925;SDS011;39836;52.754;6.866;2023-01-19T09:46:55;15.52;;;3.90;;
53925;SDS011;39836;52.754;6.866;2023-01-19T09:49:32;14.10;;;3.47;;
53925;SDS011;39836;52.754;6.866;2023-01-19T09:52:03;12.93;;;3.35;;
53925;SDS011;39836;52.754;6.866;2023-01-19T09:57:17;24.15;;;3.80;;
53925;SDS011;39836;52.754;6.866;2023-01-19T09:59:44;12.25;;;3.22;;
53925;SDS011;39836;52.754;6.866;2023-01-19T10:07:32;13.05;;;3.63;;
53925;SDS011;39836;52.754;6.866;2023-01-19T10:18:25;11.85;;;3.60;;
53925;SDS011;39836;52.754;6.866;2023-01-19T10:23:43;20.87;;;3.63;;
53925;SDS011;39836;52.754;6.866;2023-01-19T10:26:22;15.77;;;3.50;;
53925;SDS011;39836;52.754;6.866;2023-01-19T10:28:49;20.80;;;3.53;;
53925;SDS011;39836;52.754;6.866;2023-01-19T10:31:19;26.98;;;4.72;;
53925;SDS011;39836;52.754;6.866;2023-01-19T10:33:48;15.65;;;3.60;;
53925;SDS011;39836;52.754;6.866;2023-01-19T10:36:20;11.57;;;2.63;;
53925;SDS011;39836;52.754;6.866;2023-01-19T10:38:51;13.97;;;3.57;;
53925;SDS011;39836;52.754;6.866;2023-01-19T10:41:22;13.95;;;3.20;;
53925;SDS011;39836;52.754;6.866;2023-01-19T10:44:11;13.05;;;3.22;;
53925;SDS011;39836;52.754;6.866;2023-01-19T10:46:44;8.57;;;2.90;;
53925;SDS011;39836;52.754;6.866;2023-01-19T10:51:52;12.73;;;2.92;;
53925;SDS011;39836;52.754;6.866;2023-01-19T10:54:20;15.20;;;3.10;;
53925;SDS011;39836;52.754;6.866;2023-01-19T10:56:54;9.27;;;2.70;;
53925;SDS011;39836;52.754;6.866;2023-01-19T10:59:33;13.73;;;3.28;;
53925;SDS011;39836;52.754;6.866;2023-01-19T11:02:03;11.85;;;2.97;;
53925;SDS011;39836;52.754;6.866;2023-01-19T11:04:41;14.48;;;3.20;;
53925;SDS011;39836;52.754;6.866;2023-01-19T11:07:17;13.40;;;3.40;;
53925;SDS011;39836;52.754;6.866;2023-01-19T11:09:43;9.90;;;3.03;;
53925;SDS011;39836;52.754;6.866;2023-01-19T11:12:16;11.15;;;2.30;;
53925;SDS011;39836;52.754;6.866;2023-01-19T11:14:47;16.95;;;2.95;;
53925;SDS011;39836;52.754;6.866;2023-01-19T11:17:18;11.63;;;2.83;;
53925;SDS011;39836;52.754;6.866;2023-01-19T11:20:00;13.82;;;2.88;;
53925;SDS011;39836;52.754;6.866;2023-01-19T11:22:28;19.33;;;3.10;;
53925;SDS011;39836;52.754;6.866;2023-01-19T11:25:00;15.43;;;3.10;;
53925;SDS011;39836;52.754;6.866;2023-01-19T11:27:28;13.63;;;2.85;;
53925;SDS011;39836;52.754;6.866;2023-01-19T11:30:17;11.75;;;2.95;;
53925;SDS011;39836;52.754;6.866;2023-01-19T11:32:46;12.13;;;2.70;;
53925;SDS011;39836;52.754;6.866;2023-01-19T11:35:29;21.98;;;3.22;;
53925;SDS011;39836;52.754;6.866;2023-01-19T11:40:37;13.27;;;2.70;;
53925;SDS011;39836;52.754;6.866;2023-01-19T11:43:04;18.75;;;2.78;;
53925;SDS011;39836;52.754;6.866;2023-01-19T11:45:30;9.48;;;2.53;;
53925;SDS011;39836;52.754;6.866;2023-01-19T11:48:00;13.18;;;2.67;;
53925;SDS011;39836;52.754;6.866;2023-01-19T11:50:30;14.55;;;2.90;;
53925;SDS011;39836;52.754;6.866;2023-01-19T11:55:38;17.00;;;3.20;;
53925;SDS011;39836;52.754;6.866;2023-01-19T11:58:12;9.75;;;2.67;;
53925;SDS011;39836;52.754;6.866;2023-01-19T12:00:49;15.98;;;3.10;;
53925;SDS011;39836;52.754;6.866;2023-01-19T12:06:09;9.32;;;2.75;;
53925;SDS011;39836;52.754;6.866;2023-01-19T12:08:41;12.40;;;3.00;;
53925;SDS011;39836;52.754;6.866;2023-01-19T12:11:11;12.48;;;2.42;;
53925;SDS011;39836;52.754;6.866;2023-01-19T12:13:42;12.98;;;3.03;;
53925;SDS011;39836;52.754;6.866;2023-01-19T12:16:11;12.38;;;2.30;;
53925;SDS011;39836;52.754;6.866;2023-01-19T12:18:55;14.45;;;2.95;;
53925;SDS011;39836;52.754;6.866;2023-01-19T12:21:25;15.43;;;2.60;;
53925;SDS011;39836;52.754;6.866;2023-01-19T12:29:18;18.83;;;2.72;;
53925;SDS011;39836;52.754;6.866;2023-01-19T12:34:41;11.63;;;2.17;;
53925;SDS011;39836;52.754;6.866;2023-01-19T12:39:53;10.80;;;2.53;;
53925;SDS011;39836;52.754;6.866;2023-01-19T12:42:24;10.60;;;2.30;;
53925;SDS011;39836;52.754;6.866;2023-01-19T12:44:54;10.52;;;1.90;;
53925;SDS011;39836;52.754;6.866;2023-01-19T12:47:32;11.75;;;2.33;;
53925;SDS011;39836;52.754;6.866;2023-01-19T12:50:02;7.88;;;2.22;;
53925;SDS011;39836;52.754;6.866;2023-01-19T12:52:31;12.07;;;2.35;;
53925;SDS011;39836;52.754;6.866;2023-01-19T12:57:38;6.18;;;2.13;;
53925;SDS011;39836;52.754;6.866;2023-01-19T13:05:18;9.32;;;2.10;;
53925;SDS011;39836;52.754;6.866;2023-01-19T13:18:55;9.02;;;2.35;;
53925;SDS011;39836;52.754;6.866;2023-01-19T13:24:00;12.52;;;2.38;;
53925;SDS011;39836;52.754;6.866;2023-01-19T13:26:29;5.90;;;2.40;;
53925;SDS011;39836;52.754;6.866;2023-01-19T13:29:23;8.02;;;2.42;;
53925;SDS011;39836;52.754;6.866;2023-01-19T13:32:16;10.68;;;2.55;;
53925;SDS011;39836;52.754;6.866;2023-01-19T13:34:55;10.75;;;2.10;;
53925;SDS011;39836;52.754;6.866;2023-01-19T13:37:26;8.70;;;2.20;;
53925;SDS011;39836;52.754;6.866;2023-01-19T13:39:59;8.27;;;2.33;;
53925;SDS011;39836;52.754;6.866;2023-01-19T13:42:29;11.35;;;2.40;;
53925;SDS011;39836;52.754;6.866;2023-01-19T13:45:00;7.10;;;3.00;;
53925;SDS011;39836;52.754;6.866;2023-01-19T13:47:37;9.82;;;2.60;;
53925;SDS011;39836;52.754;6.866;2023-01-19T13:50:17;7.88;;;2.17;;
53925;SDS011;39836;52.754;6.866;2023-01-19T13:52:45;11.55;;;2.58;;
53925;SDS011;39836;52.754;6.866;2023-01-19T13:55:13;11.20;;;2.22;;
53925;SDS011;39836;52.754;6.866;2023-01-19T13:57:40;9.52;;;2.50;;
53925;SDS011;39836;52.754;6.866;2023-01-19T14:02:57;10.20;;;2.65;;
53925;SDS011;39836;52.754;6.866;2023-01-19T14:05:31;7.50;;;2.53;;
53925;SDS011;39836;52.754;6.866;2023-01-19T14:13:21;7.38;;;2.05;;
53925;SDS011;39836;52.754;6.866;2023-01-19T14:16:03;5.82;;;2.20;;
53925;SDS011;39836;52.754;6.866;2023-01-19T14:18:31;8.90;;;1.88;;
53925;SDS011;39836;52.754;6.866;2023-01-19T14:31:43;7.72;;;2.13;;
53925;SDS011;39836;52.754;6.866;2023-01-19T14:34:30;8.52;;;2.17;;
53925;SDS011;39836;52.754;6.866;2023-01-19T14:36:56;9.63;;;2.10;;
53925;SDS011;39836;52.754;6.866;2023-01-19T14:39:23;4.25;;;2.10;;
53925;SDS011;39836;52.754;6.866;2023-01-19T14:41:51;5.22;;;1.98;;
53925;SDS011;39836;52.754;6.866;2023-01-19T14:44:34;8.32;;;2.17;;
53925;SDS011;39836;52.754;6.866;2023-01-19T14:47:02;11.07;;;2.60;;
53925;SDS011;39836;52.754;6.866;2023-01-19T14:51:58;12.23;;;2.47;;
53925;SDS011;39836;52.754;6.866;2023-01-19T14:54:31;9.80;;;2.20;;
53925;SDS011;39836;52.754;6.866;2023-01-19T14:57:04;6.68;;;2.30;;
53925;SDS011;39836;52.754;6.866;2023-01-19T14:59:36;12.65;;;2.40;;
53925;SDS011;39836;52.754;6.866;2023-01-19T15:02:01;11.55;;;2.17;;
53925;SDS011;39836;52.754;6.866;2023-01-19T15:04:27;13.45;;;2.42;;
53925;SDS011;39836;52.754;6.866;2023-01-19T15:06:53;8.52;;;2.20;;
53925;SDS011;39836;52.754;6.866;2023-01-19T15:09:19;9.02;;;2.33;;
53925;SDS011;39836;52.754;6.866;2023-01-19T15:11:46;7.75;;;2.70;;
53925;SDS011;39836;52.754;6.866;2023-01-19T15:14:13;7.70;;;2.50;;
53925;SDS011;39836;52.754;6.866;2023-01-19T15:16:41;7.57;;;2.22;;
53925;SDS011;39836;52.754;6.866;2023-01-19T15:21:52;12.48;;;2.35;;
53925;SDS011;39836;52.754;6.866;2023-01-19T15:24:18;10.48;;;2.55;;
53925;SDS011;39836;52.754;6.866;2023-01-19T15:26:43;10.73;;;2.55;;
53925;SDS011;39836;52.754;6.866;2023-01-19T15:29:19;10.57;;;2.10;;
53925;SDS011;39836;52.754;6.866;2023-01-19T15:31:49;8.23;;;2.35;;
53925;SDS011;39836;52.754;6.866;2023-01-19T15:34:15;7.05;;;2.42;;
53925;SDS011;39836;52.754;6.866;2023-01-19T15:36:41;7.45;;;2.72;;
53925;SDS011;39836;52.754;6.866;2023-01-19T15:39:07;11.20;;;2.50;;
53925;SDS011;39836;52.754;6.866;2023-01-19T15:41:34;7.95;;;2.63;;
53925;SDS011;39836;52.754;6.866;2023-01-19T15:44:05;8.02;;;2.70;;
53925;SDS011;39836;52.754;6.866;2023-01-19T15:46:32;9.55;;;2.60;;
53925;SDS011;39836;52.754;6.866;2023-01-19T15:48:58;5.93;;;2.28;;
53925;SDS011;39836;52.754;6.866;2023-01-19T15:51:24;10.23;;;2.50;;
53925;SDS011;39836;52.754;6.866;2023-01-19T15:53:51;10.63;;;2.38;;
53925;SDS011;39836;52.754;6.866;2023-01-19T15:56:19;12.43;;;2.67;;
53925;SDS011;39836;52.754;6.866;2023-01-19T15:58:47;9.82;;;4.35;;
53925;SDS011;39836;52.754;6.866;2023-01-19T16:01:23;7.38;;;2.20;;
53925;SDS011;39836;52.754;6.866;2023-01-19T16:04:01;9.15;;;2.50;;
53925;SDS011;39836;52.754;6.866;2023-01-19T16:06:29;14.18;;;3.17;;
53925;SDS011;39836;52.754;6.866;2023-01-19T16:08:55;12.20;;;3.35;;
53925;SDS011;39836;52.754;6.866;2023-01-19T16:11:23;10.43;;;2.85;;
53925;SDS011;39836;52.754;6.866;2023-01-19T16:13:49;15.90;;;3.00;;
53925;SDS011;39836;52.754;6.866;2023-01-19T16:16:16;8.40;;;2.70;;
53925;SDS011;39836;52.754;6.866;2023-01-19T16:18:44;9.70;;;2.70;;
53925;SDS011;39836;52.754;6.866;2023-01-19T16:21:10;8.35;;;2.63;;
53925;SDS011;39836;52.754;6.866;2023-01-19T16:23:36;7.90;;;3.38;;